createdAt,value
2023-04-01T00:01:12.912Z,93.83
2023-04-01T00:03:39.669Z,93.87
2023-04-01T00:06:06.787Z,94.08
2023-04-01T00:08:33.302Z,94.15
2023-04-01T00:10:59.873Z,95.18
2023-04-01T00:13:27.335Z,94.29
2023-04-01T00:15:56.206Z,94.57
2023-04-01T00:18:23.691Z,94.47
2023-04-01T00:20:52.547Z,93.95
2023-04-01T00:23:20.560Z,93.91
2023-04-01T00:25:48.920Z,93.85
2023-04-01T00:28:17.702Z,94.68
2023-04-01T00:30:44.447Z,93.48
2023-04-01T00:33:12.049Z,93.65
2023-04-01T00:35:40.515Z,94.12
2023-04-01T00:38:07.484Z,94.37
2023-04-01T00:40:40.632Z,95.03
2023-04-01T00:43:13.781Z,94.02
2023-04-01T00:45:43.340Z,94.17
2023-04-01T00:48:21.465Z,94.02
2023-04-01T00:51:08.450Z,94.96
2023-04-01T00:53:39.201Z,93.11
2023-04-01T00:56:12.347Z,93.63
2023-04-01T00:58:43.188Z,94.90
2023-04-01T01:01:11.030Z,95.74
2023-04-01T01:03:37.896Z,95.72
2023-04-01T01:06:07.082Z,94.52
2023-04-01T01:09:01.378Z,94.87
2023-04-01T01:11:42.783Z,96.07
2023-04-01T01:14:25.848Z,98.15
2023-04-01T01:17:03.453Z,100.00
2023-04-01T01:19:52.029Z,100.00
2023-04-01T01:22:26.411Z,100.00
2023-04-01T01:25:17.445Z,100.00
2023-04-01T01:27:53.739Z,100.00
2023-04-01T01:30:32.864Z,99.64
2023-04-01T01:33:13.428Z,99.58
2023-04-01T01:35:58.892Z,100.00
2023-04-01T01:38:29.923Z,100.00
2023-04-01T01:41:03.880Z,100.00
2023-04-01T01:43:36.352Z,100.00
2023-04-01T01:46:08.714Z,100.00
2023-04-01T01:48:36.852Z,100.00
2023-04-01T01:51:06.369Z,100.00
2023-04-01T01:53:33.104Z,100.00
2023-04-01T01:56:00.173Z,99.74
2023-04-01T01:58:52.845Z,100.00
2023-04-01T02:01:31.299Z,100.00
2023-04-01T02:04:05.663Z,100.00
2023-04-01T02:06:36.578Z,100.00
2023-04-01T02:09:07.601Z,100.00
2023-04-01T02:11:45.065Z,100.00
2023-04-01T02:14:19.927Z,100.00
2023-04-01T02:17:01.200Z,100.00
2023-04-01T02:19:34.305Z,100.00
2023-04-01T02:22:04.786Z,100.00
2023-04-01T02:24:35.001Z,100.00
2023-04-01T02:27:01.751Z,100.00
2023-04-01T02:29:29.709Z,100.00
2023-04-01T02:31:56.908Z,100.00
2023-04-01T02:34:25.511Z,100.00
2023-04-01T02:36:52.610Z,100.00
2023-04-01T02:39:19.209Z,100.00
2023-04-01T02:41:46.448Z,100.00
2023-04-01T02:44:15.697Z,100.00
2023-04-01T02:46:43.226Z,100.00
2023-04-01T02:49:09.872Z,100.00
2023-04-01T02:51:36.434Z,100.00
2023-04-01T02:54:03.125Z,100.00
2023-04-01T02:56:29.657Z,100.00
2023-04-01T02:58:56.743Z,100.00
2023-04-01T03:01:23.420Z,100.00
2023-04-01T03:03:50.005Z,100.00
2023-04-01T03:06:18.085Z,100.00
2023-04-01T03:08:45.314Z,100.00
2023-04-01T03:11:12.624Z,100.00
2023-04-01T03:13:39.459Z,100.00
2023-04-01T03:16:07.407Z,100.00
2023-04-01T03:18:35.517Z,100.00
2023-04-01T03:21:23.020Z,100.00
2023-04-01T03:23:50.266Z,100.00
2023-04-01T03:26:17.480Z,100.00
2023-04-01T03:28:44.214Z,100.00
2023-04-01T03:31:11.497Z,100.00
2023-04-01T03:33:44.340Z,100.00
2023-04-01T03:36:13.198Z,100.00
2023-04-01T03:38:41.740Z,100.00
2023-04-01T03:41:08.255Z,100.00
2023-04-01T03:43:34.757Z,100.00
2023-04-01T03:46:01.294Z,100.00
2023-04-01T03:48:28.461Z,100.00
2023-04-01T03:50:55.013Z,100.00
2023-04-01T03:53:22.298Z,100.00
2023-04-01T03:55:49.141Z,100.00
2023-04-01T03:58:16.176Z,100.00
2023-04-01T04:00:42.685Z,100.00
2023-04-01T04:03:10.412Z,100.00
2023-04-01T04:05:37.070Z,100.00
2023-04-01T04:08:04.188Z,100.00
2023-04-01T04:10:31.734Z,100.00
2023-04-01T04:12:58.275Z,100.00
2023-04-01T04:15:28.853Z,100.00
2023-04-01T04:17:55.522Z,100.00
2023-04-01T04:20:23.226Z,100.00
2023-04-01T04:22:49.699Z,100.00
2023-04-01T04:25:16.258Z,100.00
2023-04-01T04:27:42.798Z,100.00
2023-04-01T04:30:12.256Z,100.00
2023-04-01T04:32:38.827Z,100.00
2023-04-01T04:35:07.424Z,100.00
2023-04-01T04:37:34.576Z,100.00
2023-04-01T04:40:01.104Z,100.00
2023-04-01T04:42:28.633Z,100.00
2023-04-01T04:45:00.797Z,100.00
2023-04-01T04:47:27.857Z,100.00
2023-04-01T04:49:54.501Z,100.00
2023-04-01T04:52:21.120Z,100.00
2023-04-01T04:54:47.802Z,100.00
2023-04-01T04:57:14.335Z,100.00
2023-04-01T04:59:47.711Z,100.00
2023-04-01T05:02:25.359Z,100.00
2023-04-01T05:04:51.849Z,100.00
2023-04-01T05:07:18.295Z,100.00
2023-04-01T05:09:46.645Z,100.00
2023-04-01T05:12:14.136Z,100.00
2023-04-01T05:14:56.231Z,100.00
2023-04-01T05:17:22.973Z,100.00
2023-04-01T05:19:49.535Z,100.00
2023-04-01T05:22:16.090Z,100.00
2023-04-01T05:24:43.520Z,100.00
2023-04-01T05:27:13.061Z,100.00
2023-04-01T05:29:41.208Z,100.00
2023-04-01T05:32:13.100Z,100.00
2023-04-01T05:34:39.622Z,100.00
2023-04-01T05:37:08.167Z,100.00
2023-04-01T05:39:39.052Z,100.00
2023-04-01T05:42:09.017Z,100.00
2023-04-01T05:44:36.937Z,100.00
2023-04-01T05:47:04.836Z,100.00
2023-04-01T05:49:31.987Z,100.00
2023-04-01T05:51:58.609Z,100.00
2023-04-01T05:54:26.137Z,100.00
2023-04-01T05:56:52.609Z,100.00
2023-04-01T05:59:20.179Z,100.00
2023-04-01T06:01:46.628Z,100.00
2023-04-01T06:04:16.998Z,100.00
2023-04-01T06:06:44.464Z,100.00
2023-04-01T06:09:18.989Z,100.00
2023-04-01T06:12:03.334Z,100.00
2023-04-01T06:14:50.668Z,100.00
2023-04-01T06:17:39.288Z,100.00
2023-04-01T06:20:17.955Z,100.00
2023-04-01T06:23:06.210Z,100.00
2023-04-01T06:25:44.095Z,100.00
2023-04-01T06:28:10.836Z,100.00
2023-04-01T06:30:45.959Z,100.00
2023-04-01T06:33:39.142Z,100.00
2023-04-01T06:36:43.146Z,100.00
2023-04-01T06:39:27.109Z,100.00
2023-04-01T06:42:03.378Z,100.00
2023-04-01T06:44:37.982Z,100.00
2023-04-01T06:47:57.106Z,100.00
2023-04-01T06:50:55.593Z,100.00
2023-04-01T06:53:45.970Z,100.00
2023-04-01T06:56:38.288Z,100.00
2023-04-01T06:59:33.531Z,100.00
2023-04-01T07:02:42.535Z,100.00
2023-04-01T07:05:12.261Z,100.00
2023-04-01T07:07:49.988Z,100.00
2023-04-01T07:10:58.270Z,100.00
2023-04-01T07:13:54.260Z,100.00
2023-04-01T07:16:35.430Z,100.00
2023-04-01T07:19:16.603Z,100.00
2023-04-01T07:22:39.286Z,100.00
2023-04-01T07:25:31.768Z,100.00
2023-04-01T07:28:20.625Z,100.00
2023-04-01T07:31:21.239Z,100.00
2023-04-01T07:34:25.509Z,100.00
2023-04-01T07:37:07.409Z,100.00
2023-04-01T07:39:48.100Z,100.00
2023-04-01T07:42:58.437Z,100.00
2023-04-01T07:45:43.782Z,100.00
2023-04-01T07:48:22.125Z,100.00
2023-04-01T07:50:57.726Z,100.00
2023-04-01T07:53:33.675Z,100.00
2023-04-01T07:56:29.969Z,100.00
2023-04-01T07:59:23.815Z,100.00
2023-04-01T08:02:35.675Z,100.00
2023-04-01T08:05:16.496Z,100.00
2023-04-01T08:08:05.192Z,100.00
2023-04-01T08:11:12.986Z,100.00
2023-04-01T08:14:17.624Z,100.00
2023-04-01T08:17:21.987Z,100.00
2023-04-01T08:20:02.736Z,100.00
2023-04-01T08:22:46.037Z,100.00
2023-04-01T08:25:26.886Z,100.00
2023-04-01T08:28:02.907Z,100.00
2023-04-01T08:30:44.666Z,100.00
2023-04-01T08:33:20.311Z,100.00
2023-04-01T08:35:52.915Z,100.00
2023-04-01T08:38:45.989Z,100.00
2023-04-01T08:41:28.560Z,100.00
2023-04-01T08:44:30.416Z,100.00
2023-04-01T08:47:20.271Z,100.00
2023-04-01T08:50:03.061Z,100.00
2023-04-01T08:53:12.190Z,100.00
2023-04-01T08:55:40.140Z,100.00
2023-04-01T08:58:44.752Z,100.00
2023-04-01T09:01:27.026Z,100.00
2023-04-01T09:04:34.582Z,100.00
2023-04-01T09:07:29.249Z,100.00
2023-04-01T09:10:07.489Z,100.00
2023-04-01T09:13:17.062Z,100.00
2023-04-01T09:16:20.493Z,100.00
2023-04-01T09:18:56.777Z,100.00
2023-04-01T09:21:43.088Z,100.00
2023-04-01T09:24:19.014Z,100.00
2023-04-01T09:27:04.228Z,100.00
2023-04-01T09:29:55.395Z,100.00
2023-04-01T09:33:10.227Z,100.00
2023-04-01T09:35:49.763Z,100.00
2023-04-01T09:38:37.253Z,100.00
2023-04-01T09:41:45.183Z,100.00
2023-04-01T09:44:24.258Z,100.00
2023-04-01T09:47:27.871Z,100.00
2023-04-01T09:50:33.947Z,100.00
2023-04-01T09:53:29.284Z,100.00
2023-04-01T09:56:17.577Z,100.00
2023-04-01T09:59:01.292Z,100.00
2023-04-01T10:02:17.508Z,100.00
2023-04-01T10:05:18.810Z,100.00
2023-04-01T10:08:03.486Z,100.00
2023-04-01T10:10:35.965Z,100.00
2023-04-01T10:13:27.446Z,100.00
2023-04-01T10:16:23.318Z,100.00
2023-04-01T10:19:11.778Z,100.00
2023-04-01T10:21:53.636Z,100.00
2023-04-01T10:24:48.251Z,100.00
2023-04-01T10:27:38.556Z,100.00
2023-04-01T10:30:29.064Z,100.00
2023-04-01T10:33:24.381Z,100.00
2023-04-01T10:36:12.866Z,100.00
2023-04-01T10:38:52.905Z,100.00
2023-04-01T10:42:04.562Z,100.00
2023-04-01T10:45:28.632Z,100.00
2023-04-01T10:48:04.854Z,100.00
2023-04-01T10:50:58.840Z,100.00
2023-04-01T10:53:59.490Z,100.00
2023-04-01T10:56:58.339Z,100.00
2023-04-01T10:59:46.338Z,100.00
2023-04-01T11:02:59.073Z,100.00
2023-04-01T11:06:23.574Z,100.00
2023-04-01T11:09:34.137Z,100.00
2023-04-01T11:12:28.521Z,100.00
2023-04-01T11:15:24.481Z,100.00
2023-04-01T11:18:25.626Z,100.00
2023-04-01T11:21:26.930Z,100.00
2023-04-01T11:24:12.393Z,100.00
2023-04-01T11:27:13.052Z,100.00
2023-04-01T11:30:00.915Z,100.00
2023-04-01T11:32:53.961Z,100.00
2023-04-01T11:35:36.049Z,100.00
2023-04-01T11:38:31.896Z,100.00
2023-04-01T11:41:36.251Z,100.00
2023-04-01T11:44:30.614Z,100.00
2023-04-01T11:47:37.286Z,100.00
2023-04-01T11:50:22.004Z,100.00
2023-04-01T11:53:03.288Z,100.00
2023-04-01T11:55:42.791Z,100.00
2023-04-01T11:58:41.644Z,100.00
2023-04-01T12:01:27.923Z,100.00
2023-04-01T12:04:25.327Z,100.00
2023-04-01T12:06:54.545Z,100.00
2023-04-01T12:09:32.704Z,100.00
2023-04-01T12:12:17.514Z,100.00
2023-04-01T12:15:05.711Z,100.00
2023-04-01T12:17:45.014Z,100.00
2023-04-01T12:20:34.420Z,100.00
2023-04-01T12:23:16.347Z,100.00
2023-04-01T12:25:48.909Z,100.00
2023-04-01T12:28:18.307Z,100.00
2023-04-01T12:31:07.694Z,100.00
2023-04-01T12:33:49.934Z,100.00
2023-04-01T12:36:29.174Z,100.00
2023-04-01T12:39:25.892Z,100.00
2023-04-01T12:42:05.521Z,100.00
2023-04-01T12:44:42.193Z,100.00
2023-04-01T12:47:33.027Z,100.00
2023-04-01T12:50:27.113Z,100.00
2023-04-01T12:53:43.957Z,100.00
2023-04-01T12:56:44.169Z,100.00
2023-04-01T12:59:54.598Z,100.00
2023-04-01T13:02:52.068Z,100.00
2023-04-01T13:06:02.014Z,100.00
2023-04-01T13:08:50.372Z,100.00
2023-04-01T13:11:44.858Z,100.00
2023-04-01T13:14:51.512Z,100.00
2023-04-01T13:17:29.856Z,100.00
2023-04-01T13:20:13.357Z,100.00
2023-04-01T13:23:04.737Z,100.00
2023-04-01T13:25:40.454Z,100.00
2023-04-01T13:28:26.716Z,100.00
2023-04-01T13:31:02.403Z,100.00
2023-04-01T13:33:39.821Z,100.00
2023-04-01T13:36:20.323Z,100.00
2023-04-01T13:39:01.998Z,100.00
2023-04-01T13:41:50.686Z,100.00
2023-04-01T13:44:20.993Z,100.00
2023-04-01T13:47:16.547Z,100.00
2023-04-01T13:50:18.020Z,100.00
2023-04-01T13:52:47.529Z,100.00
2023-04-01T13:55:55.508Z,100.00
2023-04-01T13:58:33.055Z,100.00
2023-04-01T14:01:02.584Z,100.00
2023-04-01T14:03:32.612Z,100.00
2023-04-01T14:06:41.169Z,99.84
2023-04-01T14:09:28.997Z,100.00
2023-04-01T14:12:10.256Z,100.00
2023-04-01T14:14:58.346Z,100.00
2023-04-01T14:17:49.731Z,98.84
2023-04-01T14:20:34.394Z,95.97
2023-04-01T14:23:26.103Z,96.06
2023-04-01T14:26:31.658Z,96.45
2023-04-01T14:29:39.783Z,94.71
2023-04-01T14:32:28.053Z,96.46
2023-04-01T14:35:21.761Z,95.65
2023-04-01T14:37:57.300Z,94.88
2023-04-01T14:40:51.926Z,96.03
2023-04-01T14:43:43.584Z,94.72
2023-04-01T14:46:36.201Z,94.99
2023-04-01T14:49:14.582Z,93.88
2023-04-01T14:51:42.029Z,91.63
2023-04-01T14:54:11.436Z,92.08
2023-04-01T14:56:42.934Z,93.43
2023-04-01T14:59:23.044Z,94.61
2023-04-01T15:02:19.323Z,95.20
2023-04-01T15:05:27.400Z,96.14
2023-04-01T15:08:07.085Z,98.42
2023-04-01T15:11:10.918Z,100.00
2023-04-01T15:14:03.079Z,99.88
2023-04-01T15:16:41.060Z,98.90
2023-04-01T15:19:31.907Z,99.38
2023-04-01T15:22:33.227Z,100.00
2023-04-01T15:25:14.849Z,99.05
2023-04-01T15:27:56.128Z,98.48
2023-04-01T15:30:34.280Z,99.49
2023-04-01T15:33:21.292Z,97.35
2023-04-01T15:35:55.100Z,97.44
2023-04-01T15:38:27.816Z,97.95
2023-04-01T15:41:13.057Z,97.67
2023-04-01T15:43:50.087Z,99.40
2023-04-01T15:46:28.647Z,99.40
2023-04-01T15:49:24.041Z,99.92
2023-04-01T15:52:04.866Z,100.00
2023-04-01T15:54:58.299Z,100.00
2023-04-01T15:57:41.629Z,98.46
2023-04-01T16:00:11.954Z,96.69
2023-04-01T16:02:55.853Z,93.66
2023-04-01T16:05:43.725Z,94.81
2023-04-01T16:08:19.009Z,95.37
2023-04-01T16:11:14.404Z,95.44
2023-04-01T16:13:49.802Z,96.83
2023-04-01T16:16:32.115Z,97.12
2023-04-01T16:19:04.650Z,96.39
2023-04-01T16:21:43.057Z,96.23
2023-04-01T16:24:35.316Z,96.75
2023-04-01T16:27:10.111Z,97.31
2023-04-01T16:30:01.291Z,96.18
2023-04-01T16:32:55.783Z,94.84
2023-04-01T16:35:49.977Z,93.96
2023-04-01T16:38:27.388Z,93.58
2023-04-01T16:41:06.625Z,95.11
2023-04-01T16:43:36.085Z,94.63
2023-04-01T16:46:28.322Z,95.41
2023-04-01T16:49:09.771Z,95.77
2023-04-01T16:52:06.819Z,96.67
2023-04-01T16:54:51.310Z,96.20
2023-04-01T16:57:27.549Z,98.32
2023-04-01T17:00:16.804Z,97.46
2023-04-01T17:02:53.499Z,96.23
2023-04-01T17:05:33.875Z,95.99
2023-04-01T17:08:30.632Z,96.91
2023-04-01T17:11:23.831Z,96.69
2023-04-01T17:13:58.738Z,96.12
2023-04-01T17:16:49.665Z,96.84
2023-04-01T17:19:34.870Z,96.97
2023-04-01T17:22:28.673Z,96.94
2023-04-01T17:25:10.494Z,98.90
2023-04-01T17:27:43.025Z,97.86
2023-04-01T17:30:34.669Z,97.82
2023-04-01T17:33:16.736Z,98.96
2023-04-01T17:35:58.805Z,99.28
2023-04-01T17:39:03.675Z,99.33
2023-04-01T17:41:41.995Z,99.37
2023-04-01T17:44:23.612Z,99.68
2023-04-01T17:47:27.067Z,100.00
2023-04-01T17:50:14.802Z,100.00
2023-04-01T17:52:59.717Z,99.64
2023-04-01T17:55:49.951Z,99.80
2023-04-01T17:58:29.370Z,100.00
2023-04-01T18:01:04.727Z,99.94
2023-04-01T18:03:59.224Z,100.00
2023-04-01T18:06:37.229Z,100.00
2023-04-01T18:09:39.479Z,100.00
2023-04-01T18:12:06.220Z,100.00
2023-04-01T18:14:51.166Z,100.00
2023-04-01T18:17:23.667Z,100.00
2023-04-01T18:20:11.189Z,100.00
2023-04-01T18:22:49.594Z,100.00
2023-04-01T18:25:35.900Z,100.00
2023-04-01T18:28:25.774Z,100.00
2023-04-01T18:31:06.780Z,100.00
2023-04-01T18:33:42.907Z,100.00
2023-04-01T18:36:27.957Z,100.00
2023-04-01T18:39:03.988Z,100.00
2023-04-01T18:41:41.161Z,100.00
2023-04-01T18:44:19.894Z,100.00
2023-04-01T18:47:04.699Z,100.00
2023-04-01T18:49:44.240Z,100.00
2023-04-01T18:52:21.220Z,100.00
2023-04-01T18:55:03.007Z,100.00
2023-04-01T18:57:50.438Z,100.00
2023-04-01T19:00:26.188Z,100.00
2023-04-01T19:03:01.607Z,100.00
2023-04-01T19:05:34.146Z,100.00
2023-04-01T19:08:25.710Z,100.00
2023-04-01T19:11:11.690Z,100.00
2023-04-01T19:13:59.520Z,100.00
2023-04-01T19:16:35.094Z,100.00
2023-04-01T19:19:23.582Z,100.00
2023-04-01T19:21:53.840Z,100.00
2023-04-01T19:24:40.895Z,100.00
2023-04-01T19:27:07.277Z,100.00
2023-04-01T19:29:48.519Z,100.00
2023-04-01T19:32:26.328Z,100.00
2023-04-01T19:35:11.637Z,100.00
2023-04-01T19:37:45.626Z,100.00
2023-04-01T19:40:38.861Z,100.00
2023-04-01T19:43:26.702Z,100.00
2023-04-01T19:45:59.078Z,100.00
2023-04-01T19:48:44.760Z,100.00
2023-04-01T19:51:28.404Z,100.00
2023-04-01T19:54:04.830Z,100.00
2023-04-01T19:56:48.829Z,100.00
2023-04-01T19:59:35.802Z,100.00
2023-04-01T20:02:08.163Z,100.00
2023-04-01T20:04:42.175Z,100.00
2023-04-01T20:07:16.867Z,100.00
2023-04-01T20:10:10.855Z,100.00
2023-04-01T20:12:48.972Z,100.00
2023-04-01T20:15:36.676Z,100.00
2023-04-01T20:18:13.726Z,100.00
2023-04-01T20:20:42.044Z,100.00
2023-04-01T20:23:31.482Z,100.00
2023-04-01T20:26:07.537Z,100.00
2023-04-01T20:28:44.178Z,100.00
2023-04-01T20:31:16.498Z,100.00
2023-04-01T20:34:09.593Z,100.00
2023-04-01T20:36:57.228Z,100.00
2023-04-01T20:39:42.233Z,100.00
2023-04-01T20:42:30.012Z,100.00
2023-04-01T20:45:33.968Z,100.00
2023-04-01T20:48:27.884Z,100.00
2023-04-01T20:51:04.119Z,100.00
2023-04-01T20:53:50.948Z,100.00
2023-04-01T20:56:17.401Z,100.00
2023-04-01T20:59:05.890Z,100.00
2023-04-01T21:02:09.885Z,100.00
2023-04-01T21:05:10.104Z,100.00
2023-04-01T21:07:45.723Z,100.00
2023-04-01T21:10:27.987Z,100.00
2023-04-01T21:13:20.384Z,100.00
2023-04-01T21:16:05.275Z,100.00
2023-04-01T21:18:38.046Z,100.00
2023-04-01T21:21:57.486Z,100.00
2023-04-01T21:24:46.329Z,100.00
2023-04-01T21:27:27.673Z,100.00
2023-04-01T21:30:06.382Z,100.00
2023-04-01T21:33:06.852Z,100.00
2023-04-01T21:36:04.813Z,100.00
2023-04-01T21:38:49.777Z,100.00
2023-04-01T21:41:19.190Z,100.00
2023-04-01T21:44:25.638Z,100.00
2023-04-01T21:47:14.008Z,100.00
2023-04-01T21:49:49.412Z,100.00
2023-04-01T21:53:11.442Z,100.00
2023-04-01T21:55:52.911Z,100.00
2023-04-01T21:59:02.417Z,100.00
2023-04-01T22:01:49.127Z,100.00
2023-04-01T22:04:49.839Z,100.00
2023-04-01T22:07:21.169Z,100.00
2023-04-01T22:10:21.416Z,100.00
2023-04-01T22:13:10.939Z,100.00
2023-04-01T22:15:56.716Z,100.00
2023-04-01T22:18:51.575Z,100.00
2023-04-01T22:21:35.982Z,100.00
2023-04-01T22:24:13.715Z,100.00
2023-04-01T22:27:26.130Z,100.00
2023-04-01T22:30:16.230Z,100.00
2023-04-01T22:32:53.196Z,100.00
2023-04-01T22:35:44.486Z,100.00
2023-04-01T22:38:32.529Z,100.00
2023-04-01T22:41:13.320Z,100.00
2023-04-01T22:43:45.038Z,100.00
2023-04-01T22:46:50.730Z,100.00
2023-04-01T22:49:43.084Z,100.00
2023-04-01T22:52:29.911Z,100.00
2023-04-01T22:55:01.870Z,100.00
2023-04-01T22:57:31.514Z,100.00
2023-04-01T23:00:18.623Z,100.00
2023-04-01T23:03:05.960Z,100.00
2023-04-01T23:05:37.504Z,100.00
2023-04-01T23:08:34.463Z,100.00
2023-04-01T23:11:05.224Z,100.00
2023-04-01T23:14:04.518Z,100.00
2023-04-01T23:16:37.913Z,100.00
2023-04-01T23:19:15.573Z,100.00
2023-04-01T23:21:52.844Z,100.00
2023-04-01T23:24:31.314Z,100.00
2023-04-01T23:27:06.717Z,100.00
2023-04-01T23:29:37.585Z,100.00
2023-04-01T23:32:05.305Z,100.00
2023-04-01T23:34:34.642Z,100.00
2023-04-01T23:37:17.065Z,100.00
2023-04-01T23:39:49.857Z,100.00
2023-04-01T23:42:21.908Z,100.00
2023-04-01T23:44:52.031Z,100.00
2023-04-01T23:47:28.588Z,100.00
2023-04-01T23:49:59.118Z,100.00
2023-04-01T23:52:32.307Z,100.00
2023-04-01T23:55:43.364Z,100.00
2023-04-01T23:58:11.849Z,100.00
